sensor_id;sensor_type;location;lat;lon;timestamp;pressure;altitude;pressure_sealevel;temperature;humidity
32492;BME280;20605;49.742;18.802;2022-11-15T00:00:11;98086.61;;;2.21;100.00
32492;BME280;20605;49.742;18.802;2022-11-15T00:02:57;98103.33;;;2.22;100.00
32492;BME280;20605;49.742;18.802;2022-11-15T00:05:42;98097.77;;;2.24;100.00
32492;BME280;20605;49.742;18.802;2022-11-15T00:08:29;98095.63;;;2.24;100.00
32492;BME280;20605;49.742;18.802;2022-11-15T00:11:15;98100.76;;;2.22;100.00
32492;BME280;20605;49.742;18.802;2022-11-15T00:13:59;98103.33;;;2.22;100.00
32492;BME280;20605;49.742;18.802;2022-11-15T00:16:46;98114.50;;;2.29;100.00
32492;BME280;20605;49.742;18.802;2022-11-15T00:19:31;98107.69;;;2.34;100.00
32492;BME280;20605;49.742;18.802;2022-11-15T00:22:16;98106.00;;;2.41;100.00
32492;BME280;20605;49.742;18.802;2022-11-15T00:25:01;98115.92;;;2.52;100.00
32492;BME280;20605;49.742;18.802;2022-11-15T00:27:46;98103.95;;;2.58;100.00
32492;BME280;20605;49.742;18.802;2022-11-15T00:30:31;98103.08;;;2.62;100.00
32492;BME280;20605;49.742;18.802;2022-11-15T00:33:16;98115.10;;;2.67;100.00
32492;BME280;20605;49.742;18.802;2022-11-15T00:36:05;98110.83;;;2.70;100.00
32492;BME280;20605;49.742;18.802;2022-11-15T00:38:53;98103.59;;;2.80;100.00
32492;BME280;20605;49.742;18.802;2022-11-15T00:41:37;98101.03;;;2.86;100.00
32492;BME280;20605;49.742;18.802;2022-11-15T00:44:22;98101.46;;;2.86;100.00
32492;BME280;20605;49.742;18.802;2022-11-15T00:47:07;98095.89;;;2.86;100.00
32492;BME280;20605;49.742;18.802;2022-11-15T00:49:52;98096.30;;;2.80;100.00
32492;BME280;20605;49.742;18.802;2022-11-15T00:52:37;98091.97;;;2.68;100.00
32492;BME280;20605;49.742;18.802;2022-11-15T00:55:22;98088.95;;;2.64;100.00
32492;BME280;20605;49.742;18.802;2022-11-15T00:58:08;98083.34;;;2.49;100.00
32492;BME280;20605;49.742;18.802;2022-11-15T01:00:53;98074.30;;;2.42;100.00
32492;BME280;20605;49.742;18.802;2022-11-15T01:03:39;98083.68;;;2.32;100.00
32492;BME280;20605;49.742;18.802;2022-11-15T01:06:25;98070.34;;;2.20;100.00
32492;BME280;20605;49.742;18.802;2022-11-15T01:09:09;98069.42;;;2.11;100.00
32492;BME280;20605;49.742;18.802;2022-11-15T01:11:55;98068.56;;;2.10;100.00
32492;BME280;20605;49.742;18.802;2022-11-15T01:14:39;98072.80;;;2.04;100.00
32492;BME280;20605;49.742;18.802;2022-11-15T01:17:25;98065.59;;;2.14;100.00
32492;BME280;20605;49.742;18.802;2022-11-15T01:20:10;98060.06;;;2.20;100.00
32492;BME280;20605;49.742;18.802;2022-11-15T01:22:55;98061.81;;;2.27;100.00
32492;BME280;20605;49.742;18.802;2022-11-15T01:25:40;98058.41;;;2.32;100.00
32492;BME280;20605;49.742;18.802;2022-11-15T01:28:28;98047.67;;;2.27;100.00
32492;BME280;20605;49.742;18.802;2022-11-15T01:31:19;98051.52;;;2.26;100.00
32492;BME280;20605;49.742;18.802;2022-11-15T01:34:05;98047.64;;;2.20;100.00
32492;BME280;20605;49.742;18.802;2022-11-15T01:36:50;98045.03;;;2.14;100.00
32492;BME280;20605;49.742;18.802;2022-11-15T01:39:35;98040.32;;;2.13;100.00
32492;BME280;20605;49.742;18.802;2022-11-15T01:42:20;98034.80;;;2.21;100.00
32492;BME280;20605;49.742;18.802;2022-11-15T01:45:07;98004.83;;;2.25;100.00
32492;BME280;20605;49.742;18.802;2022-11-15T01:47:55;98004.83;;;2.25;100.00
32492;BME280;20605;49.742;18.802;2022-11-15T01:50:40;98014.28;;;2.32;100.00
32492;BME280;20605;49.742;18.802;2022-11-15T01:53:25;98012.54;;;2.25;100.00
32492;BME280;20605;49.742;18.802;2022-11-15T01:56:13;98009.44;;;2.04;100.00
32492;BME280;20605;49.742;18.802;2022-11-15T01:59:04;98011.11;;;1.96;100.00
32492;BME280;20605;49.742;18.802;2022-11-15T02:01:51;98005.98;;;1.98;100.00
32492;BME280;20605;49.742;18.802;2022-11-15T02:04:40;97994.84;;;1.97;100.00
32492;BME280;20605;49.742;18.802;2022-11-15T02:07:29;97990.96;;;1.91;100.00
32492;BME280;20605;49.742;18.802;2022-11-15T02:10:21;97996.92;;;1.87;100.00
32492;BME280;20605;49.742;18.802;2022-11-15T02:13:08;97988.39;;;1.91;100.00
32492;BME280;20605;49.742;18.802;2022-11-15T02:18:52;97976.78;;;1.82;100.00
32492;BME280;20605;49.742;18.802;2022-11-15T02:21:58;97975.05;;;1.79;100.00
32492;BME280;20605;49.742;18.802;2022-11-15T02:30:45;97969.83;;;1.64;100.00
32492;BME280;20605;49.742;18.802;2022-11-15T02:37:07;97954.91;;;1.74;100.00
32492;BME280;20605;49.742;18.802;2022-11-15T02:43:04;97951.97;;;1.84;100.00
32492;BME280;20605;49.742;18.802;2022-11-15T02:46:08;97952.78;;;1.77;100.00
32492;BME280;20605;49.742;18.802;2022-11-15T02:49:00;97948.52;;;1.79;100.00
32492;BME280;20605;49.742;18.802;2022-11-15T02:51:47;97936.95;;;1.76;100.00
32492;BME280;20605;49.742;18.802;2022-11-15T02:54:34;97934.38;;;1.76;100.00
32492;BME280;20605;49.742;18.802;2022-11-15T02:57:24;97930.13;;;1.82;100.00
32492;BME280;20605;49.742;18.802;2022-11-15T03:00:27;97934.03;;;1.91;100.00
32492;BME280;20605;49.742;18.802;2022-11-15T03:06:35;97928.51;;;2.03;100.00
32492;BME280;20605;49.742;18.802;2022-11-15T03:09:52;97929.31;;;1.91;100.00
32492;BME280;20605;49.742;18.802;2022-11-15T03:12:49;97923.30;;;1.84;100.00
32492;BME280;20605;49.742;18.802;2022-11-15T03:16:04;97923.68;;;1.76;100.00
32492;BME280;20605;49.742;18.802;2022-11-15T03:18:58;97921.09;;;1.72;100.00
32492;BME280;20605;49.742;18.802;2022-11-15T03:22:02;97917.64;;;1.67;100.00
32492;BME280;20605;49.742;18.802;2022-11-15T03:24:53;97908.61;;;1.57;100.00
32492;BME280;20605;49.742;18.802;2022-11-15T03:27:43;97902.61;;;1.57;100.00
32492;BME280;20605;49.742;18.802;2022-11-15T03:30:30;97897.03;;;1.54;100.00
32492;BME280;20605;49.742;18.802;2022-11-15T03:33:17;97896.19;;;1.55;100.00
32492;BME280;20605;49.742;18.802;2022-11-15T03:36:04;97892.80;;;1.62;100.00
32492;BME280;20605;49.742;18.802;2022-11-15T03:38:51;97884.69;;;1.66;100.00
32492;BME280;20605;49.742;18.802;2022-11-15T03:41:41;97874.48;;;1.81;100.00
32492;BME280;20605;49.742;18.802;2022-11-15T03:44:46;97863.47;;;2.16;100.00
32492;BME280;20605;49.742;18.802;2022-11-15T03:47:45;97857.94;;;2.97;100.00
32492;BME280;20605;49.742;18.802;2022-11-15T03:50:28;97854.16;;;4.06;100.00
32492;BME280;20605;49.742;18.802;2022-11-15T03:53:14;97852.82;;;5.24;100.00
32492;BME280;20605;49.742;18.802;2022-11-15T03:55:59;97840.00;;;6.28;100.00
32492;BME280;20605;49.742;18.802;2022-11-15T03:58:44;97850.77;;;6.84;100.00
32492;BME280;20605;49.742;18.802;2022-11-15T04:01:29;97834.66;;;7.41;100.00
32492;BME280;20605;49.742;18.802;2022-11-15T04:04:14;97829.08;;;7.82;100.00
32492;BME280;20605;49.742;18.802;2022-11-15T04:06:59;97835.98;;;8.04;100.00
32492;BME280;20605;49.742;18.802;2022-11-15T04:09:44;97827.22;;;8.29;100.00
32492;BME280;20605;49.742;18.802;2022-11-15T04:12:47;97828.34;;;8.57;100.00
32492;BME280;20605;49.742;18.802;2022-11-15T04:15:32;97813.52;;;8.80;100.00
32492;BME280;20605;49.742;18.802;2022-11-15T04:18:17;97808.02;;;8.92;100.00
32492;BME280;20605;49.742;18.802;2022-11-15T04:21:02;97794.95;;;8.95;100.00
32492;BME280;20605;49.742;18.802;2022-11-15T04:24:06;97791.33;;;9.17;100.00
32492;BME280;20605;49.742;18.802;2022-11-15T04:26:57;97786.81;;;9.40;100.00
32492;BME280;20605;49.742;18.802;2022-11-15T04:29:42;97792.16;;;9.66;100.00
32492;BME280;20605;49.742;18.802;2022-11-15T04:32:26;97792.16;;;9.66;100.00
32492;BME280;20605;49.742;18.802;2022-11-15T04:35:12;97766.68;;;9.63;100.00
32492;BME280;20605;49.742;18.802;2022-11-15T04:37:57;97766.68;;;9.63;100.00
32492;BME280;20605;49.742;18.802;2022-11-15T04:40:42;97790.00;;;9.66;100.00
32492;BME280;20605;49.742;18.802;2022-11-15T04:43:27;97788.10;;;9.56;100.00
32492;BME280;20605;49.742;18.802;2022-11-15T04:46:13;97767.69;;;9.42;100.00
32492;BME280;20605;49.742;18.802;2022-11-15T04:48:57;97786.92;;;9.52;100.00
32492;BME280;20605;49.742;18.802;2022-11-15T04:51:42;97783.54;;;9.64;100.00
32492;BME280;20605;49.742;18.802;2022-11-15T04:54:27;97774.31;;;9.69;100.00
32492;BME280;20605;49.742;18.802;2022-11-15T04:57:13;97777.77;;;9.84;100.00
32492;BME280;20605;49.742;18.802;2022-11-15T04:59:58;97775.21;;;9.83;100.00
32492;BME280;20605;49.742;18.802;2022-11-15T05:02:43;97782.80;;;9.90;100.00
32492;BME280;20605;49.742;18.802;2022-11-15T05:05:46;97783.86;;;10.12;100.00
32492;BME280;20605;49.742;18.802;2022-11-15T05:08:32;97784.83;;;10.25;100.00
32492;BME280;20605;49.742;18.802;2022-11-15T05:11:17;97783.92;;;10.26;100.00
32492;BME280;20605;49.742;18.802;2022-11-15T05:14:02;97776.47;;;10.28;100.00
32492;BME280;20605;49.742;18.802;2022-11-15T05:16:47;97770.41;;;10.28;100.00
32492;BME280;20605;49.742;18.802;2022-11-15T05:19:32;97773.11;;;10.25;100.00
32492;BME280;20605;49.742;18.802;2022-11-15T05:22:18;97767.95;;;10.23;100.00
32492;BME280;20605;49.742;18.802;2022-11-15T05:25:03;97759.85;;;10.18;100.00
32492;BME280;20605;49.742;18.802;2022-11-15T05:27:48;97763.36;;;9.58;100.00
32492;BME280;20605;49.742;18.802;2022-11-15T05:30:33;97770.23;;;8.63;100.00
32492;BME280;20605;49.742;18.802;2022-11-15T05:33:18;97774.37;;;7.94;100.00
32492;BME280;20605;49.742;18.802;2022-11-15T05:36:12;97765.76;;;7.31;100.00
32492;BME280;20605;49.742;18.802;2022-11-15T05:38:53;97781.66;;;6.87;100.00
32492;BME280;20605;49.742;18.802;2022-11-15T05:41:45;97777.16;;;6.21;100.00
32492;BME280;20605;49.742;18.802;2022-11-15T05:44:29;97774.08;;;5.60;100.00
32492;BME280;20605;49.742;18.802;2022-11-15T05:47:24;97767.82;;;5.07;100.00
32492;BME280;20605;49.742;18.802;2022-11-15T05:50:12;97772.16;;;4.58;100.00
32492;BME280;20605;49.742;18.802;2022-11-15T05:52:59;97781.94;;;4.14;100.00
32492;BME280;20605;49.742;18.802;2022-11-15T05:55:45;97783.87;;;3.84;100.00
32492;BME280;20605;49.742;18.802;2022-11-15T05:58:32;97794.77;;;3.47;100.00
32492;BME280;20605;49.742;18.802;2022-11-15T06:01:17;97794.77;;;3.47;100.00
32492;BME280;20605;49.742;18.802;2022-11-15T06:04:02;97790.95;;;3.34;100.00
32492;BME280;20605;49.742;18.802;2022-11-15T06:06:47;97787.14;;;3.18;100.00
32492;BME280;20605;49.742;18.802;2022-11-15T06:09:32;97788.89;;;3.06;100.00
32492;BME280;20605;49.742;18.802;2022-11-15T06:12:17;97795.77;;;2.96;100.00
32492;BME280;20605;49.742;18.802;2022-11-15T06:15:03;97800.48;;;2.90;100.00
32492;BME280;20605;49.742;18.802;2022-11-15T06:17:48;97800.50;;;2.78;100.00
32492;BME280;20605;49.742;18.802;2022-11-15T06:20:33;97802.66;;;2.74;100.00
32492;BME280;20605;49.742;18.802;2022-11-15T06:23:18;97799.66;;;2.67;100.00
32492;BME280;20605;49.742;18.802;2022-11-15T06:26:03;97796.22;;;2.73;100.00
32492;BME280;20605;49.742;18.802;2022-11-15T06:28:47;97801.79;;;2.80;100.00
32492;BME280;20605;49.742;18.802;2022-11-15T06:31:33;97798.78;;;2.86;100.00
32492;BME280;20605;49.742;18.802;2022-11-15T06:34:18;97801.77;;;2.92;100.00
32492;BME280;20605;49.742;18.802;2022-11-15T06:37:03;97799.63;;;2.90;100.00
32492;BME280;20605;49.742;18.802;2022-11-15T06:39:48;97797.48;;;2.95;100.00
32492;BME280;20605;49.742;18.802;2022-11-15T06:42:33;97806.05;;;3.04;100.00
32492;BME280;20605;49.742;18.802;2022-11-15T06:45:18;97801.30;;;3.17;100.00
32492;BME280;20605;49.742;18.802;2022-11-15T06:48:03;97798.66;;;3.41;100.00
32492;BME280;20605;49.742;18.802;2022-11-15T06:50:54;97807.26;;;4.19;100.00
32492;BME280;20605;49.742;18.802;2022-11-15T06:53:40;97796.16;;;5.13;100.00
32492;BME280;20605;49.742;18.802;2022-11-15T06:56:24;97803.50;;;6.17;100.00
32492;BME280;20605;49.742;18.802;2022-11-15T06:59:09;97799.35;;;7.98;100.00
32492;BME280;20605;49.742;18.802;2022-11-15T07:01:55;97785.63;;;9.52;100.00
32492;BME280;20605;49.742;18.802;2022-11-15T07:04:40;97800.33;;;10.69;100.00
32492;BME280;20605;49.742;18.802;2022-11-15T07:07:25;97790.48;;;11.90;100.00
32492;BME280;20605;49.742;18.802;2022-11-15T07:10:10;97793.30;;;13.16;100.00
32492;BME280;20605;49.742;18.802;2022-11-15T07:12:55;97786.12;;;14.56;100.00
32492;BME280;20605;49.742;18.802;2022-11-15T07:15:42;97783.77;;;16.21;100.00
32492;BME280;20605;49.742;18.802;2022-11-15T07:18:27;97782.73;;;17.60;99.84
32492;BME280;20605;49.742;18.802;2022-11-15T07:21:12;97789.83;;;19.19;98.98
32492;BME280;20605;49.742;18.802;2022-11-15T07:23:57;97781.80;;;20.66;90.69
32492;BME280;20605;49.742;18.802;2022-11-15T07:26:42;97774.98;;;21.28;90.99
32492;BME280;20605;49.742;18.802;2022-11-15T07:29:27;97776.69;;;22.14;85.86
32492;BME280;20605;49.742;18.802;2022-11-15T07:32:12;97780.54;;;21.99;83.23
32492;BME280;20605;49.742;18.802;2022-11-15T07:34:57;97772.53;;;22.60;81.35
32492;BME280;20605;49.742;18.802;2022-11-15T07:37:41;97770.59;;;23.58;80.97
32492;BME280;20605;49.742;18.802;2022-11-15T07:40:28;97771.48;;;24.50;77.55
32492;BME280;20605;49.742;18.802;2022-11-15T07:43:13;97766.30;;;25.70;74.58
32492;BME280;20605;49.742;18.802;2022-11-15T07:45:59;97760.70;;;26.00;72.21
32492;BME280;20605;49.742;18.802;2022-11-15T07:48:52;97754.55;;;27.14;70.66
32492;BME280;20605;49.742;18.802;2022-11-15T07:51:37;97764.77;;;28.32;69.23
32492;BME280;20605;49.742;18.802;2022-11-15T07:54:22;97753.11;;;29.40;62.65
32492;BME280;20605;49.742;18.802;2022-11-15T07:57:06;97743.43;;;30.23;64.85
32492;BME280;20605;49.742;18.802;2022-11-15T07:59:53;97738.31;;;31.29;58.83
32492;BME280;20605;49.742;18.802;2022-11-15T08:02:38;97731.02;;;31.19;56.55
32492;BME280;20605;49.742;18.802;2022-11-15T08:05:23;97733.95;;;30.43;54.73
32492;BME280;20605;49.742;18.802;2022-11-15T08:08:09;97731.16;;;31.59;56.89
32492;BME280;20605;49.742;18.802;2022-11-15T08:10:59;97733.78;;;32.70;51.99
32492;BME280;20605;49.742;18.802;2022-11-15T08:13:44;97735.11;;;32.49;50.28
32492;BME280;20605;49.742;18.802;2022-11-15T08:16:29;97733.30;;;32.45;49.40
32492;BME280;20605;49.742;18.802;2022-11-15T08:19:15;97740.70;;;32.68;47.90
32492;BME280;20605;49.742;18.802;2022-11-15T08:21:59;97728.27;;;31.23;44.80
32492;BME280;20605;49.742;18.802;2022-11-15T08:24:49;97725.74;;;28.87;45.42
32492;BME280;20605;49.742;18.802;2022-11-15T08:27:39;97739.49;;;26.50;45.65
32492;BME280;20605;49.742;18.802;2022-11-15T08:30:25;97738.72;;;24.04;46.89
32492;BME280;20605;49.742;18.802;2022-11-15T08:33:12;97743.73;;;22.39;48.56
32492;BME280;20605;49.742;18.802;2022-11-15T08:35:59;97739.59;;;21.05;49.94
32492;BME280;20605;49.742;18.802;2022-11-15T08:38:44;97741.43;;;19.76;51.26
32492;BME280;20605;49.742;18.802;2022-11-15T08:41:37;97740.44;;;18.74;52.70
32492;BME280;20605;49.742;18.802;2022-11-15T08:44:22;97742.67;;;17.63;54.46
32492;BME280;20605;49.742;18.802;2022-11-15T08:47:14;97729.36;;;16.77;56.09
32492;BME280;20605;49.742;18.802;2022-11-15T08:49:58;97739.89;;;15.98;58.31
32492;BME280;20605;49.742;18.802;2022-11-15T08:52:42;97745.14;;;15.41;59.84
32492;BME280;20605;49.742;18.802;2022-11-15T08:55:27;97741.84;;;15.12;61.27
32492;BME280;20605;49.742;18.802;2022-11-15T08:58:12;97741.45;;;14.85;62.17
32492;BME280;20605;49.742;18.802;2022-11-15T09:00:58;97742.33;;;14.49;63.48
32492;BME280;20605;49.742;18.802;2022-11-15T09:03:43;97737.63;;;14.20;63.89
32492;BME280;20605;49.742;18.802;2022-11-15T09:06:27;97733.41;;;13.69;65.43
32492;BME280;20605;49.742;18.802;2022-11-15T09:09:13;97734.25;;;13.41;67.00
32492;BME280;20605;49.742;18.802;2022-11-15T09:11:57;97730.31;;;13.11;68.39
32492;BME280;20605;49.742;18.802;2022-11-15T09:14:42;97736.09;;;12.88;69.20
32492;BME280;20605;49.742;18.802;2022-11-15T09:17:27;97729.01;;;12.70;70.67
32492;BME280;20605;49.742;18.802;2022-11-15T09:20:12;97728.53;;;12.60;71.79
32492;BME280;20605;49.742;18.802;2022-11-15T09:23:01;97730.94;;;12.55;72.66
32492;BME280;20605;49.742;18.802;2022-11-15T09:25:46;97727.89;;;12.65;73.30
32492;BME280;20605;49.742;18.802;2022-11-15T09:28:33;97727.26;;;12.81;73.75
32492;BME280;20605;49.742;18.802;2022-11-15T09:31:18;97719.88;;;12.80;74.10
32492;BME280;20605;49.742;18.802;2022-11-15T09:34:03;97727.45;;;12.86;74.77
32492;BME280;20605;49.742;18.802;2022-11-15T09:36:48;97723.88;;;12.99;75.12
32492;BME280;20605;49.742;18.802;2022-11-15T09:39:33;97710.05;;;13.05;75.40
32492;BME280;20605;49.742;18.802;2022-11-15T09:42:52;97705.66;;;13.06;76.02
32492;BME280;20605;49.742;18.802;2022-11-15T09:48:58;97700.56;;;13.13;77.30
32492;BME280;20605;49.742;18.802;2022-11-15T09:51:40;97701.34;;;13.15;77.53
32492;BME280;20605;49.742;18.802;2022-11-15T09:56:48;97691.23;;;13.28;78.25
32492;BME280;20605;49.742;18.802;2022-11-15T10:05:16;97679.77;;;13.41;79.73
32492;BME280;20605;49.742;18.802;2022-11-15T10:10:41;97672.21;;;13.53;80.17
32492;BME280;20605;49.742;18.802;2022-11-15T10:13:13;97662.03;;;13.66;80.69
32492;BME280;20605;49.742;18.802;2022-11-15T10:15:43;97666.38;;;13.76;80.77
32492;BME280;20605;49.742;18.802;2022-11-15T10:18:40;97662.09;;;13.83;81.00
32492;BME280;20605;49.742;18.802;2022-11-15T10:21:20;97655.87;;;13.86;81.14
32492;BME280;20605;49.742;18.802;2022-11-15T10:23:48;97658.34;;;13.89;81.52
32492;BME280;20605;49.742;18.802;2022-11-15T10:26:16;97651.80;;;13.89;81.12
32492;BME280;20605;49.742;18.802;2022-11-15T10:28:43;97649.93;;;13.82;81.70
32492;BME280;20605;49.742;18.802;2022-11-15T10:31:25;97646.44;;;13.73;81.80
32492;BME280;20605;49.742;18.802;2022-11-15T10:34:10;97641.22;;;13.82;82.25
32492;BME280;20605;49.742;18.802;2022-11-15T10:36:35;97635.00;;;13.84;82.42
32492;BME280;20605;49.742;18.802;2022-11-15T10:39:03;97636.69;;;13.85;82.61
32492;BME280;20605;49.742;18.802;2022-11-15T10:41:35;97634.78;;;13.89;82.70
32492;BME280;20605;49.742;18.802;2022-11-15T10:44:16;97631.23;;;13.90;82.74
32492;BME280;20605;49.742;18.802;2022-11-15T10:49:31;97625.69;;;13.87;83.58
32492;BME280;20605;49.742;18.802;2022-11-15T10:54:55;97619.66;;;13.77;84.50
32492;BME280;20605;49.742;18.802;2022-11-15T10:57:37;97611.48;;;13.74;85.12
32492;BME280;20605;49.742;18.802;2022-11-15T11:00:13;97616.16;;;13.67;85.77
32492;BME280;20605;49.742;18.802;2022-11-15T11:03:00;97613.44;;;13.60;86.20
32492;BME280;20605;49.742;18.802;2022-11-15T11:05:38;97612.98;;;13.61;86.68
32492;BME280;20605;49.742;18.802;2022-11-15T11:10:55;97614.17;;;13.73;87.63
32492;BME280;20605;49.742;18.802;2022-11-15T11:13:32;97609.16;;;13.68;88.21
32492;BME280;20605;49.742;18.802;2022-11-15T11:22:13;97599.94;;;13.32;89.75
32492;BME280;20605;49.742;18.802;2022-11-15T11:24:56;97591.97;;;13.15;90.53
32492;BME280;20605;49.742;18.802;2022-11-15T11:27:43;97592.50;;;13.13;90.84
32492;BME280;20605;49.742;18.802;2022-11-15T11:33:39;97587.20;;;13.14;91.29
32492;BME280;20605;49.742;18.802;2022-11-15T11:36:24;97590.34;;;13.12;91.75
32492;BME280;20605;49.742;18.802;2022-11-15T11:44:50;97580.76;;;13.02;92.55
32492;BME280;20605;49.742;18.802;2022-11-15T11:47:26;97576.84;;;13.02;93.07
32492;BME280;20605;49.742;18.802;2022-11-15T11:52:57;97565.66;;;12.90;93.88
32492;BME280;20605;49.742;18.802;2022-11-15T11:55:47;97566.06;;;12.81;94.62
32492;BME280;20605;49.742;18.802;2022-11-15T11:58:37;97553.98;;;12.79;94.62
32492;BME280;20605;49.742;18.802;2022-11-15T12:01:25;97555.16;;;12.71;94.59
32492;BME280;20605;49.742;18.802;2022-11-15T12:06:35;97540.72;;;12.73;95.46
32492;BME280;20605;49.742;18.802;2022-11-15T12:09:19;97541.57;;;12.73;95.46
32492;BME280;20605;49.742;18.802;2022-11-15T12:17:28;97530.50;;;12.87;96.32
32492;BME280;20605;49.742;18.802;2022-11-15T12:19:55;97524.86;;;12.96;96.23
32492;BME280;20605;49.742;18.802;2022-11-15T12:22:32;97529.00;;;13.00;96.33
32492;BME280;20605;49.742;18.802;2022-11-15T12:25:34;97518.79;;;13.04;96.46
32492;BME280;20605;49.742;18.802;2022-11-15T12:28:24;97515.68;;;13.15;96.34
32492;BME280;20605;49.742;18.802;2022-11-15T12:30:50;97509.60;;;13.15;96.34
32492;BME280;20605;49.742;18.802;2022-11-15T12:33:37;97514.13;;;13.11;96.47
32492;BME280;20605;49.742;18.802;2022-11-15T12:36:11;97509.50;;;13.07;96.58
32492;BME280;20605;49.742;18.802;2022-11-15T12:41:37;97499.31;;;12.93;97.19
32492;BME280;20605;49.742;18.802;2022-11-15T12:44:11;97498.28;;;12.87;97.19
32492;BME280;20605;49.742;18.802;2022-11-15T12:59:58;97495.17;;;12.50;99.34
32492;BME280;20605;49.742;18.802;2022-11-15T13:02:38;97488.38;;;12.46;100.00
32492;BME280;20605;49.742;18.802;2022-11-15T13:13:02;97478.27;;;12.38;100.00
32492;BME280;20605;49.742;18.802;2022-11-15T13:20:58;97471.35;;;12.37;100.00
32492;BME280;20605;49.742;18.802;2022-11-15T13:23:25;97471.88;;;12.35;100.00
32492;BME280;20605;49.742;18.802;2022-11-15T13:28:47;97464.39;;;12.17;100.00
32492;BME280;20605;49.742;18.802;2022-11-15T13:31:36;97473.53;;;12.07;100.00
32492;BME280;20605;49.742;18.802;2022-11-15T13:34:24;97466.74;;;12.03;100.00
32492;BME280;20605;49.742;18.802;2022-11-15T13:36:58;97465.17;;;11.99;100.00
32492;BME280;20605;49.742;18.802;2022-11-15T13:39:30;97468.11;;;11.91;100.00
32492;BME280;20605;49.742;18.802;2022-11-15T13:41:58;97471.23;;;11.89;100.00
32492;BME280;20605;49.742;18.802;2022-11-15T13:44:30;97461.91;;;11.84;100.00
32492;BME280;20605;49.742;18.802;2022-11-15T13:47:07;97468.33;;;11.75;100.00
32492;BME280;20605;49.742;18.802;2022-11-15T13:49:41;97462.73;;;11.64;100.00
32492;BME280;20605;49.742;18.802;2022-11-15T13:52:13;97464.81;;;11.56;100.00
32492;BME280;20605;49.742;18.802;2022-11-15T13:55:00;97464.48;;;11.53;100.00
32492;BME280;20605;49.742;18.802;2022-11-15T13:57:44;97462.45;;;11.50;100.00
32492;BME280;20605;49.742;18.802;2022-11-15T14:03:23;97463.41;;;11.37;100.00
32492;BME280;20605;49.742;18.802;2022-11-15T14:06:07;97459.67;;;11.32;100.00
32492;BME280;20605;49.742;18.802;2022-11-15T14:08:57;97462.41;;;11.29;100.00
32492;BME280;20605;49.742;18.802;2022-11-15T14:11:29;97454.83;;;11.23;100.00
32492;BME280;20605;49.742;18.802;2022-11-15T14:14:13;97448.67;;;11.14;100.00
32492;BME280;20605;49.742;18.802;2022-11-15T14:16:46;97443.03;;;11.03;100.00
32492;BME280;20605;49.742;18.802;2022-11-15T14:30:40;97432.90;;;10.50;100.00
32492;BME280;20605;49.742;18.802;2022-11-15T14:35:49;97436.69;;;10.41;100.00
32492;BME280;20605;49.742;18.802;2022-11-15T14:38:19;97438.14;;;10.38;100.00
32492;BME280;20605;49.742;18.802;2022-11-15T14:40:45;97435.59;;;10.37;100.00
32492;BME280;20605;49.742;18.802;2022-11-15T14:43:12;97431.80;;;10.34;100.00
32492;BME280;20605;49.742;18.802;2022-11-15T14:45:41;97429.70;;;10.32;100.00
32492;BME280;20605;49.742;18.802;2022-11-15T14:48:07;97427.55;;;10.31;100.00
32492;BME280;20605;49.742;18.802;2022-11-15T14:50:35;97430.66;;;10.29;100.00
32492;BME280;20605;49.742;18.802;2022-11-15T14:53:02;97422.17;;;10.24;100.00
32492;BME280;20605;49.742;18.802;2022-11-15T14:55:32;97425.02;;;10.17;100.00
32492;BME280;20605;49.742;18.802;2022-11-15T14:58:04;97416.98;;;10.11;100.00
32492;BME280;20605;49.742;18.802;2022-11-15T15:00:39;97419.69;;;10.08;100.00
32492;BME280;20605;49.742;18.802;2022-11-15T15:03:04;97420.76;;;10.02;100.00
32492;BME280;20605;49.742;18.802;2022-11-15T15:05:37;97413.06;;;9.99;100.00
32492;BME280;20605;49.742;18.802;2022-11-15T15:08:05;97421.72;;;10.00;100.00
32492;BME280;20605;49.742;18.802;2022-11-15T15:10:35;97416.22;;;9.96;100.00
32492;BME280;20605;49.742;18.802;2022-11-15T15:13:04;97419.78;;;9.93;100.00
32492;BME280;20605;49.742;18.802;2022-11-15T15:15:34;97417.73;;;9.90;100.00
32492;BME280;20605;49.742;18.802;2022-11-15T15:18:07;97413.55;;;9.86;100.00
32492;BME280;20605;49.742;18.802;2022-11-15T15:20:32;97418.00;;;9.82;100.00
32492;BME280;20605;49.742;18.802;2022-11-15T15:22:58;97412.52;;;9.78;100.00
32492;BME280;20605;49.742;18.802;2022-11-15T15:25:31;97406.97;;;9.75;100.00
32492;BME280;20605;49.742;18.802;2022-11-15T15:28:01;97412.78;;;9.70;100.00
32492;BME280;20605;49.742;18.802;2022-11-15T15:30:29;97411.08;;;9.69;100.00
32492;BME280;20605;49.742;18.802;2022-11-15T15:32:56;97409.72;;;9.71;100.00
32492;BME280;20605;49.742;18.802;2022-11-15T15:35:23;97405.13;;;9.66;100.00
32492;BME280;20605;49.742;18.802;2022-11-15T15:37:53;97411.28;;;9.63;100.00
32492;BME280;20605;49.742;18.802;2022-11-15T15:40:22;97410.54;;;9.60;100.00
32492;BME280;20605;49.742;18.802;2022-11-15T15:42:50;97405.50;;;9.55;100.00
32492;BME280;20605;49.742;18.802;2022-11-15T15:45:17;97400.06;;;9.36;100.00
32492;BME280;20605;49.742;18.802;2022-11-15T15:47:45;97394.97;;;9.20;100.00
32492;BME280;20605;49.742;18.802;2022-11-15T15:50:24;97396.39;;;9.04;100.00
32492;BME280;20605;49.742;18.802;2022-11-15T15:52:55;97394.98;;;8.94;100.00
32492;BME280;20605;49.742;18.802;2022-11-15T15:55:23;97393.93;;;8.86;100.00
32492;BME280;20605;49.742;18.802;2022-11-15T15:57:50;97388.38;;;8.83;100.00
32492;BME280;20605;49.742;18.802;2022-11-15T16:00:18;97386.54;;;8.87;100.00
32492;BME280;20605;49.742;18.802;2022-11-15T16:02:46;97388.94;;;8.93;100.00
32492;BME280;20605;49.742;18.802;2022-11-15T16:05:13;97376.10;;;8.89;100.00